Sunday, December 16, 2018, 1:42 PM EST
Back to Local

KUCP, New Castle, New Castle Municipal Airport

Location: Edinburg, PA, United States Lat: 41.025
Local Time: 1:42 PM EST (18:42 GMT) Lon: -80.413
Time Zone: US/Eastern Elev: 1072 ft

Show me the last for .
Show Decoded

2018-12-16 12:56 METAR KUCP 161756Z AUTO 35006KT 3SM -RA BR OVC006 04/04 A2994 RMK AO2 RAB44 CIG
                 004V010 SLP161 P0000 60019 T00440039 10050 20033 58010 =
2018-12-16 12:17 METAR KUCP 161717Z AUTO 01003KT 6SM BR BKN006 OVC014 05/04 A2995 RMK AO2 =
2018-12-16 11:56 METAR KUCP 161656Z AUTO 01003KT 10SM OVC011 05/04 A2995 RMK AO2 SLP165 P0001
                 T00500039 =
2018-12-16 10:56 METAR KUCP 161556Z AUTO 02004KT 10SM OVC011 05/03 A2999 RMK AO2 SLP176 P0002
                 T00500028 =
2018-12-16 10:25 METAR KUCP 161525Z AUTO 05005KT 10SM BKN011 OVC050 05/03 A2998 RMK AO2 P0001 =
2018-12-16 09:56 METAR KUCP 161456Z AUTO 08005KT 10SM FEW009 BKN035 05/03 A2997 RMK AO2 RAE04
                 SLP171 P0005 60016 T00500033 55002 =
2018-12-16 09:53 METAR KUCP 161453Z AUTO 08007KT 10SM FEW009 BKN035 05/03 A2997 RMK AO2 RAE04
                 P0004 =
2018-12-16 08:56 METAR KUCP 161356Z AUTO 06008KT 10SM -RA BKN009 OVC065 04/03 A2995 RMK AO2 CIG
                 006V014 SLP165 P0005 T00390028 =
2018-12-16 08:44 METAR KUCP 161344Z AUTO 06006KT 7SM -RA BKN009 BKN017 OVC065 04/03 A2995 RMK AO2
                 CIG 006V010 P0004 =
2018-12-16 07:56 METAR KUCP 161256Z AUTO 05005KT 5SM -RA BR FEW009 SCT018 OVC043 03/03 A2998 RMK
                 AO2 SLP173 P0006 T00330028 =
2018-12-16 07:36 METAR KUCP 161236Z AUTO 06005KT 8SM -RA SCT009 BKN041 OVC048 03/03 A2997 RMK AO2
                 P0004 =
2018-12-16 06:56 METAR KUCP 161156Z AUTO 04005KT 8SM -RA BKN009 BKN019 OVC034 04/03 A2997 RMK AO2
                 SLP169 P0007 6//// 7//// T00390028 10044 20039 53004 =
2018-12-16 06:16 METAR KUCP 161116Z AUTO 05008KT 10SM -RA FEW009 BKN024 OVC050 04/03 A2996 RMK
                 AO2 P0002 =
2018-12-16 05:56 METAR KUCP 161056Z AUTO 05007KT 9SM -RA FEW009 BKN040 OVC055 04/03 A2996 RMK AO2
                 SLP165 P0006 T00390028 =
2018-12-16 05:43 METAR KUCP 161043Z AUTO 07007KT 8SM -RA FEW009 SCT020 OVC055 04/03 A2995 RMK AO2
                 P0005 =
2018-12-16 04:56 METAR KUCP 160956Z AUTO 07011KT 10SM -RA FEW010 BKN050 OVC060 04/03 A2995 RMK
                 AO2 SLP162 P0005 T00390028 =
2018-12-16 03:56 METAR KUCP 160856Z AUTO 07007KT 9SM RA FEW048 BKN060 OVC075 04/03 A2995 RMK AO2
                 SLP164 P0004 6//// T00390028 58005 =
2018-12-16 02:56 METAR KUCP 160756Z AUTO 06010KT 9SM RA FEW026 OVC065 04/03 A2997 RMK AO2 SLP169
                 T00390028 =
2018-12-16 01:56 METAR KUCP 160656Z AUTO 07007KT 9SM RA FEW028 OVC070 04/03 A2997 RMK AO2 SLP170
                 T00440028 =
2018-12-16 00:56 METAR KUCP 160556Z AUTO 06006KT 10SM -RA FEW048 OVC080 04/03 A2997 RMK AO2
                 SLP169 P0001 60008 T00440028 10067 20044 56014 =
2018-12-15 23:56 METAR KUCP 160456Z AUTO 06008KT 10SM -RA OVC080 06/01 A2998 RMK AO2 RAB37 SLP173
                 P0000 T00560011 401000056 =
2018-12-15 22:56 METAR KUCP 160356Z AUTO 06008KT 10SM OVC080 06/01 A2999 RMK AO2 SLP176 T00610011
                 =
2018-12-15 21:56 METAR KUCP 160256Z AUTO 05008KT 10SM OVC085 06/02 A3001 RMK AO2 SLP183 P0001
                 60007 T00610022 56006 =
2018-12-15 20:56 METAR KUCP 160156Z AUTO 07011KT 10SM OVC090 06/03 A3002 RMK AO2 RAE41 SLP185
                 P0002 T00610033 =
2018-12-15 19:56 METAR KUCP 160056Z AUTO 05011KT 10SM -RA OVC080 06/04 A3002 RMK AO2 RAE32B52
                 SLP185 P0004 T00610044 =
2018-12-15 18:56 METAR KUCP 152356Z AUTO 08007KT 10SM -RA OVC075 07/05 A3003 RMK AO2 SLP190 P0004
                 60022 T00670050 10100 20067 58002 =
2018-12-15 17:56 METAR KUCP 152256Z AUTO 08009KT 10SM -RA OVC080 07/06 A3003 RMK AO2 SLP189 P0004
                 T00720056 =
2018-12-15 16:56 METAR KUCP 152156Z AUTO 08009KT 8SM RA OVC065 08/06 A3004 RMK AO2 SLP193 P0010
                 T00780061 =
2018-12-15 15:56 METAR KUCP 152056Z AUTO 04006KT 8SM -RA OVC070 08/07 A3004 RMK AO2 SLP192 P0004
                 60004 T00780067 53005 =
2018-12-15 15:09 METAR KUCP 152009Z AUTO 07004KT 6SM RA BR FEW028 SCT042 OVC065 08/07 A3004 RMK
                 AO2 P0000 =
2018-12-15 14:56 METAR KUCP 151956Z AUTO 05004KT 10SM RA BKN028 BKN045 OVC070 08/06 A3004 RMK AO2
                 RAB01 SLP192 P0000 T00830061 =
2018-12-15 14:23 METAR KUCP 151923Z AUTO 09006KT 10SM -RA OVC028 09/06 A3002 RMK AO2 RAB01 P0000
                 =
2018-12-15 13:56 METAR KUCP 151856Z AUTO 05007KT 10SM OVC032 10/05 A3000 RMK AO2 SLP178 T01000050
                 =

Support USWX by starting your Amazon purchase here.